Time;durP1;ratioP1;P1;durP2;ratioP2;P2;SDS_P1;SDS_P2;PMS_P1;PMS_P2;Temp;Humidity;BMP_temperature;BMP_pressure;BME280_temperature;BME280_humidity;BME280_pressure;Samples;Min_cycle;Max_cycle;Signal;HPM_P1;HPM_P2
2022/02/16 00:02:38;;;;;;;144.57;72.03;;;;;;;1.07;74.50;99953.80;2191573;81;29322;-66
2022/02/16 00:05:40;;;;;;;132.85;70.25;;;;;;;1.00;74.80;99953.47;2191250;81;28154;-66
2022/02/16 00:08:42;;;;;;;131.22;68.17;;;;;;;0.97;75.07;99950.88;2147696;82;28962;-65
2022/02/16 00:11:43;;;;;;;138.92;71.50;;;;;;;0.93;75.06;99957.08;2181154;81;31219;-66
2022/02/16 00:14:45;;;;;;;135.65;70.95;;;;;;;0.89;75.03;99950.56;2144096;83;33552;-67
2022/02/16 00:17:48;;;;;;;123.35;66.95;;;;;;;0.84;74.97;99952.81;2144892;83;30154;-68
2022/02/16 00:20:51;;;;;;;129.72;66.15;;;;;;;0.79;74.94;99959.48;2150910;81;27616;-66
2022/02/16 00:23:52;;;;;;;124.50;63.23;;;;;;;0.75;74.97;99961.31;2153981;82;28656;-68
2022/02/16 00:26:54;;;;;;;121.82;64.22;;;;;;;0.75;75.18;99950.77;2153695;82;31064;-63
2022/02/16 00:29:56;;;;;;;120.28;63.45;;;;;;;0.72;75.22;99950.80;2154208;82;34017;-65
2022/02/16 00:32:58;;;;;;;127.58;66.20;;;;;;;0.70;75.37;99945.99;2155594;81;30481;-65
2022/02/16 00:36:00;;;;;;;107.12;60.05;;;;;;;0.70;75.66;99938.09;2158344;81;27709;-66
2022/02/16 00:39:01;;;;;;;110.68;59.58;;;;;;;0.71;76.07;99933.70;2158416;82;29673;-65
2022/02/16 00:42:04;;;;;;;107.27;58.33;;;;;;;0.74;76.45;99933.66;2155963;82;31983;-66
2022/02/16 00:45:06;;;;;;;96.40;52.38;;;;;;;0.78;76.63;99933.16;2156353;81;32991;-65
2022/02/16 00:48:07;;;;;;;86.90;49.15;;;;;;;0.83;76.97;99936.14;2158640;81;29342;-65
2022/02/16 00:51:09;;;;;;;80.97;47.27;;;;;;;0.93;77.34;99932.91;2158608;82;28011;-65
2022/02/16 00:54:11;;;;;;;78.60;46.08;;;;;;;1.02;77.51;99928.80;2154374;81;28883;-66
2022/02/16 00:57:13;;;;;;;95.25;54.67;;;;;;;1.13;77.60;99927.77;2155053;81;31060;-66
2022/02/16 01:00:16;;;;;;;97.70;53.15;;;;;;;1.19;77.29;99943.04;2153252;82;32947;-66
2022/02/16 01:03:17;;;;;;;97.35;54.05;;;;;;;1.20;77.06;99937.30;2147634;82;29533;-65
2022/02/16 01:06:19;;;;;;;101.02;56.75;;;;;;;1.19;76.79;99941.72;2150205;81;27667;-66
2022/02/16 01:09:21;;;;;;;102.42;54.55;;;;;;;1.17;76.55;99939.98;2192984;81;29735;-65
2022/02/16 01:12:23;;;;;;;97.97;52.62;;;;;;;1.13;76.45;99936.53;2197502;81;31862;-65
2022/02/16 01:15:25;;;;;;;76.95;45.12;;;;;;;1.09;76.35;99930.02;2196079;81;32561;-63
2022/02/16 01:18:27;;;;;;;69.15;40.90;;;;;;;1.08;76.98;99919.05;2198543;81;29298;-63
2022/02/16 01:21:29;;;;;;;63.55;38.30;;;;;;;1.14;77.61;99912.36;2198773;81;27643;-64
2022/02/16 01:24:30;;;;;;;55.67;35.30;;;;;;;1.25;78.12;99902.48;2198535;81;29990;-64
2022/02/16 01:27:32;;;;;;;57.58;36.58;;;;;;;1.40;78.55;99904.41;2198549;81;31009;-66
2022/02/16 01:30:34;;;;;;;53.65;33.25;;;;;;;1.55;79.02;99902.80;2198434;81;32976;-65
2022/02/16 01:33:35;;;;;;;60.40;36.75;;;;;;;1.71;78.92;99897.23;2198350;81;29503;-65
2022/02/16 01:36:37;;;;;;;52.85;35.33;;;;;;;1.84;78.93;99890.79;2198709;81;27667;-65
2022/02/16 01:39:39;;;;;;;56.15;35.55;;;;;;;1.97;78.97;99890.09;2198179;81;28505;-64
2022/02/16 01:42:41;;;;;;;46.92;31.82;;;;;;;2.07;78.87;99873.13;2197505;81;31815;-65
2022/02/16 01:45:43;;;;;;;58.23;34.65;;;;;;;2.18;78.80;99866.77;2198407;81;33033;-66
2022/02/16 01:48:45;;;;;;;47.00;31.82;;;;;;;2.28;78.74;99858.60;2198437;81;30119;-65
2022/02/16 01:51:48;;;;;;;49.48;32.63;;;;;;;2.37;78.73;99861.92;2198146;81;27664;-67
2022/02/16 01:54:49;;;;;;;48.90;33.98;;;;;;;2.45;78.62;99853.81;2198505;81;28665;-65
2022/02/16 01:57:51;;;;;;;50.75;34.92;;;;;;;2.51;78.55;99849.24;2198543;81;31017;-65
2022/02/16 02:00:54;;;;;;;50.78;34.60;;;;;;;2.55;78.36;99856.20;2197898;81;32981;-65
2022/02/16 02:03:55;;;;;;;48.95;33.10;;;;;;;2.59;78.31;99851.70;2196442;80;29444;-66
2022/02/16 02:06:57;;;;;;;42.15;29.63;;;;;;;2.64;78.35;99851.62;2198319;81;27659;-65
2022/02/16 02:10:00;;;;;;;42.20;30.55;;;;;;;2.68;78.22;99840.92;2197731;81;28804;-68
2022/02/16 02:13:01;;;;;;;43.87;29.92;;;;;;;2.71;78.15;99837.31;2197457;81;30869;-65
2022/02/16 02:16:04;;;;;;;44.63;30.23;;;;;;;2.76;78.01;99836.77;2188932;81;33719;-66
2022/02/16 02:19:06;;;;;;;39.88;27.93;;;;;;;2.78;78.03;99832.30;2197783;81;29345;-67
2022/02/16 02:22:08;;;;;;;44.65;29.63;;;;;;;2.79;77.95;99823.47;2197831;81;27827;-66
2022/02/16 02:25:10;;;;;;;43.92;30.15;;;;;;;2.82;77.90;99817.22;2197608;81;28732;-65
2022/02/16 02:28:12;;;;;;;43.20;27.60;;;;;;;2.84;77.87;99814.94;2197815;81;32124;-65
2022/02/16 02:31:14;;;;;;;36.23;25.52;;;;;;;2.87;77.81;99820.63;2197839;81;33760;-66
2022/02/16 02:34:15;;;;;;;35.23;25.52;;;;;;;2.87;77.68;99814.01;2197839;81;29330;-66
2022/02/16 02:37:17;;;;;;;34.67;22.90;;;;;;;2.87;77.59;99806.08;2197580;81;27676;-67
2022/02/16 02:40:19;;;;;;;36.75;23.73;;;;;;;2.86;77.58;99802.55;2197520;81;28814;-65
2022/02/16 02:43:20;;;;;;;37.25;25.02;;;;;;;2.87;77.51;99800.78;2197262;81;30990;-68
2022/02/16 02:46:22;;;;;;;33.40;23.90;;;;;;;2.87;77.45;99810.04;2197834;81;33098;-65
2022/02/16 02:49:24;;;;;;;33.98;24.30;;;;;;;2.88;77.50;99803.84;2197658;81;29389;-65
2022/02/16 02:52:26;;;;;;;36.30;23.60;;;;;;;2.87;77.39;99802.10;2196172;81;27703;-66
2022/02/16 02:55:28;;;;;;;37.53;24.75;;;;;;;2.88;77.47;99796.77;2197762;81;28732;-67
2022/02/16 02:58:30;;;;;;;33.18;21.85;;;;;;;2.92;77.45;99795.36;2197420;81;31064;-66
2022/02/16 03:01:32;;;;;;;35.08;22.42;;;;;;;2.94;77.37;99789.11;2197706;81;32967;-66
2022/02/16 03:04:33;;;;;;;32.05;21.75;;;;;;;2.96;77.41;99778.03;2197417;81;29328;-66
2022/02/16 03:07:35;;;;;;;32.55;23.50;;;;;;;3.01;77.38;99784.08;2194863;80;27628;-66
2022/02/16 03:10:37;;;;;;;35.48;23.10;;;;;;;3.05;77.22;99788.83;2182665;81;28872;-66
2022/02/16 03:13:38;;;;;;;37.10;23.12;;;;;;;3.06;77.15;99787.92;2163227;80;30999;-66
2022/02/16 03:16:40;;;;;;;35.28;22.60;;;;;;;3.07;77.08;99785.69;2149637;82;32950;-69
2022/02/16 03:19:42;;;;;;;32.40;21.75;;;;;;;3.07;77.00;99776.86;2112144;82;30084;-67
2022/02/16 03:22:44;;;;;;;34.80;22.82;;;;;;;3.06;76.93;99776.48;2135352;81;27714;-70
2022/02/16 03:25:46;;;;;;;33.65;22.07;;;;;;;3.03;76.91;99776.97;2211356;80;28829;-67
2022/02/16 03:28:48;;;;;;;30.17;21.23;;;;;;;3.01;76.84;99776.58;2173930;81;32032;-65
2022/02/16 03:31:50;;;;;;;33.75;21.50;;;;;;;2.98;76.83;99775.37;2207000;80;32961;-65
2022/02/16 03:34:52;;;;;;;33.13;21.70;;;;;;;2.96;76.82;99775.39;2189247;81;29320;-64
2022/02/16 03:37:55;;;;;;;32.67;22.05;;;;;;;2.93;76.82;99768.85;2188462;81;27596;-65
2022/02/16 03:40:57;;;;;;;31.93;22.30;;;;;;;2.91;76.84;99763.20;2159103;80;28639;-65
2022/02/16 03:43:58;;;;;;;31.42;21.12;;;;;;;2.88;76.83;99765.48;2149361;82;31130;-65
2022/02/16 03:47:00;;;;;;;29.90;20.97;;;;;;;2.85;76.79;99753.66;2111856;84;32927;-65
2022/02/16 03:50:03;;;;;;;34.48;21.20;;;;;;;2.82;76.74;99745.80;2168630;81;29298;-67
2022/02/16 03:53:04;;;;;;;31.23;19.70;;;;;;;2.78;76.71;99749.42;2189676;80;27679;-67
2022/02/16 03:56:06;;;;;;;31.40;21.02;;;;;;;2.72;76.66;99740.77;2189466;80;28635;-68
2022/02/16 03:59:08;;;;;;;28.52;19.57;;;;;;;2.69;76.62;99733.34;2189355;81;31854;-66
2022/02/16 04:02:10;;;;;;;28.92;19.70;;;;;;;2.66;76.60;99725.48;2189061;81;33021;-65
2022/02/16 04:05:12;;;;;;;29.25;20.00;;;;;;;2.61;76.56;99725.61;2189115;81;30283;-66
2022/02/16 04:08:14;;;;;;;29.05;20.60;;;;;;;2.57;76.54;99723.51;2199460;79;27655;-67
2022/02/16 04:11:18;;;;;;;30.80;21.70;;;;;;;2.55;76.48;99727.11;2177153;81;28692;-66
2022/02/16 04:14:20;;;;;;;28.38;18.12;;;;;;;2.50;76.49;99729.84;2175337;81;31931;-67
2022/02/16 04:17:22;;;;;;;27.73;19.62;;;;;;;2.48;76.45;99722.88;2174990;81;33007;-66
2022/02/16 04:20:24;;;;;;;27.87;19.00;;;;;;;2.43;76.42;99717.25;2165580;81;29369;-66
2022/02/16 04:23:25;;;;;;;29.05;19.50;;;;;;;2.41;76.37;99716.41;2182980;81;27615;-67
2022/02/16 04:26:27;;;;;;;31.60;19.57;;;;;;;2.37;76.32;99710.81;2204965;80;28639;-66
2022/02/16 04:29:29;;;;;;;25.90;18.30;;;;;;;2.33;76.30;99709.14;2186994;81;31015;-66
2022/02/16 04:32:31;;;;;;;38.70;20.88;;;;;;;2.30;76.28;99707.05;2213314;80;33943;-66
2022/02/16 04:35:32;;;;;;;46.75;23.20;;;;;;;2.27;76.22;99701.36;2229258;79;29538;-66
2022/02/16 04:38:34;;;;;;;40.83;21.60;;;;;;;2.24;76.22;99695.71;2247783;79;28306;-67
2022/02/16 04:41:36;;;;;;;34.40;19.48;;;;;;;2.21;76.15;99690.97;2248848;79;29318;-65
2022/02/16 04:44:38;;;;;;;31.48;18.42;;;;;;;2.18;76.09;99692.36;2246701;79;31010;-65
2022/02/16 04:47:40;;;;;;;27.80;16.50;;;;;;;2.17;76.09;99694.59;2248696;79;32937;-66
2022/02/16 04:50:42;;;;;;;30.12;17.25;;;;;;;2.15;76.05;99693.75;2248533;79;29330;-67
2022/02/16 04:53:44;;;;;;;42.48;21.30;;;;;;;2.13;76.01;99689.84;2248988;79;27710;-66
2022/02/16 04:56:46;;;;;;;41.35;18.52;;;;;;;2.11;75.95;99681.08;2220773;79;28650;-66
2022/02/16 04:59:47;;;;;;;31.05;16.48;;;;;;;2.10;75.91;99684.16;2221727;80;31862;-67
2022/02/16 05:02:49;;;;;;;24.75;14.73;;;;;;;2.10;75.84;99674.91;2221425;80;33046;-66
2022/02/16 05:05:51;;;;;;;27.20;15.05;;;;;;;2.09;75.85;99677.13;2218532;79;30164;-67
2022/02/16 05:08:52;;;;;;;22.85;14.05;;;;;;;2.10;75.81;99675.38;2182000;81;27676;-67
2022/02/16 05:11:54;;;;;;;23.90;13.78;;;;;;;2.10;75.75;99676.23;2153068;81;28710;-66
2022/02/16 05:14:56;;;;;;;26.77;13.62;;;;;;;2.09;75.69;99667.88;2184515;81;32120;-67
2022/02/16 05:17:58;;;;;;;22.50;13.88;;;;;;;2.07;75.66;99656.48;2183452;81;32935;-66
2022/02/16 05:21:00;;;;;;;23.20;13.65;;;;;;;2.07;75.62;99661.77;2198114;81;29313;-65
2022/02/16 05:24:02;;;;;;;22.25;13.78;;;;;;;2.07;75.57;99661.77;2198418;81;27611;-65
2022/02/16 05:27:04;;;;;;;23.15;13.45;;;;;;;2.06;75.55;99659.17;2198110;81;28630;-65
2022/02/16 05:30:07;;;;;;;21.42;13.13;;;;;;;2.07;75.54;99662.23;2198027;81;31026;-70
2022/02/16 05:33:10;;;;;;;21.90;13.83;;;;;;;2.07;75.52;99663.56;2198043;81;33761;-70
2022/02/16 05:36:12;;;;;;;26.35;13.65;;;;;;;2.07;75.52;99650.34;2198019;81;30272;-67
2022/02/16 05:39:14;;;;;;;22.17;12.58;;;;;;;2.08;75.53;99650.77;2186900;81;27767;-68
2022/02/16 05:42:15;;;;;;;22.87;13.45;;;;;;;2.10;75.55;99651.13;2157248;82;28623;-65
2022/02/16 05:45:17;;;;;;;21.25;13.40;;;;;;;2.12;75.53;99638.75;2182440;81;31003;-65
2022/02/16 05:48:22;;;;;;;21.73;12.45;;;;;;;2.16;75.48;99637.36;2149148;81;32955;-69
2022/02/16 05:51:23;;;;;;;21.70;12.75;;;;;;;2.16;75.44;99636.88;2196895;81;29171;-66
2022/02/16 05:54:26;;;;;;;19.82;12.80;;;;;;;2.18;75.40;99628.47;2207093;80;27687;-65
2022/02/16 05:57:28;;;;;;;18.90;12.68;;;;;;;2.20;75.36;99623.16;2206261;80;29639;-66
2022/02/16 06:00:30;;;;;;;23.05;12.43;;;;;;;2.23;75.34;99620.45;2209010;80;31000;-65
2022/02/16 06:03:31;;;;;;;19.48;11.85;;;;;;;2.28;75.37;99619.84;2208847;80;33074;-66
2022/02/16 06:06:33;;;;;;;19.23;11.10;;;;;;;2.35;75.42;99618.79;2209026;80;29346;-65
2022/02/16 06:09:35;;;;;;;13.22;10.00;;;;;;;2.43;75.34;99618.11;2175248;80;27659;-66
2022/02/16 06:12:40;;;;;;;14.85;10.23;;;;;;;2.51;75.31;99611.77;2209681;80;28691;-65
2022/02/16 06:15:42;;;;;;;13.32;8.60;;;;;;;2.59;75.26;99612.40;2191692;81;31146;-65
2022/02/16 06:18:44;;;;;;;16.87;9.45;;;;;;;2.69;75.15;99614.33;2191634;81;32972;-67
2022/02/16 06:21:46;;;;;;;11.63;8.05;;;;;;;2.79;75.14;99614.50;2188037;81;30531;-66
2022/02/16 06:24:48;;;;;;;12.23;8.45;;;;;;;2.89;74.98;99601.88;2187595;81;28342;-69
2022/02/16 06:27:51;;;;;;;16.65;7.85;;;;;;;3.01;74.95;99598.86;2188167;81;28675;-71
2022/02/16 06:30:52;;;;;;;16.45;7.85;;;;;;;3.10;74.76;99593.75;2191213;81;31850;-71
2022/02/16 06:33:54;;;;;;;13.53;6.60;;;;;;;3.23;74.62;99586.74;2190655;81;32946;-70
2022/02/16 06:36:56;;;;;;;11.38;7.15;;;;;;;3.33;74.53;99591.71;2191726;81;29312;-67
2022/02/16 06:39:58;;;;;;;15.25;8.25;;;;;;;3.45;74.32;99589.14;2188580;81;27728;-65
2022/02/16 06:43:00;;;;;;;12.73;7.37;;;;;;;3.57;74.30;99579.91;2151934;82;28890;-65
2022/02/16 06:46:02;;;;;;;13.53;7.50;;;;;;;3.72;73.89;99590.47;2151782;82;32337;-66
2022/02/16 06:49:04;;;;;;;14.45;6.80;;;;;;;3.84;73.69;99578.61;2161275;81;34148;-67
2022/02/16 06:52:06;;;;;;;11.90;7.25;;;;;;;4.00;73.64;99583.39;2187655;81;29494;-66
2022/02/16 06:55:11;;;;;;;12.45;7.33;;;;;;;4.14;73.49;99576.30;2187653;81;27680;-66
2022/02/16 06:58:13;;;;;;;8.48;5.97;;;;;;;4.30;73.41;99568.64;2190910;81;28898;-66
2022/02/16 07:01:14;;;;;;;10.43;7.05;;;;;;;4.47;73.08;99561.42;2176104;81;31812;-66
2022/02/16 07:04:16;;;;;;;8.40;5.87;;;;;;;4.62;72.92;99558.66;2190966;81;33062;-65
2022/02/16 07:07:18;;;;;;;12.25;6.03;;;;;;;4.79;72.84;99558.89;2191282;81;29544;-66
2022/02/16 07:10:20;;;;;;;6.83;4.72;;;;;;;4.96;72.55;99546.76;2185033;81;27615;-67
2022/02/16 07:13:22;;;;;;;10.15;5.58;;;;;;;5.15;72.29;99546.45;2212848;80;28870;-66
2022/02/16 07:16:23;;;;;;;9.85;6.28;;;;;;;5.33;71.85;99551.95;2213738;80;31066;-68
2022/02/16 07:19:26;;;;;;;8.28;4.90;;;;;;;5.47;71.63;99543.41;2213765;80;32955;-66
2022/02/16 07:22:28;;;;;;;10.72;5.10;;;;;;;5.57;71.15;99542.12;2213732;80;29324;-69
2022/02/16 07:25:30;;;;;;;9.78;5.33;;;;;;;5.69;70.76;99537.21;2200477;80;27684;-66
2022/02/16 07:28:32;;;;;;;9.85;5.33;;;;;;;5.79;70.72;99533.27;2205299;79;28725;-66
2022/02/16 07:31:33;;;;;;;9.20;5.47;;;;;;;5.90;70.09;99538.09;2221586;79;31271;-65
2022/02/16 07:34:37;;;;;;;11.28;6.17;;;;;;;6.01;70.21;99535.89;2215373;80;32551;-69
2022/02/16 07:37:39;;;;;;;9.33;5.20;;;;;;;6.13;70.02;99532.29;2219231;79;30149;-65
2022/02/16 07:40:44;;;;;;;8.23;5.28;;;;;;;6.25;69.92;99529.56;2221717;79;27698;-67
2022/02/16 07:43:46;;;;;;;9.60;5.10;;;;;;;6.38;69.96;99526.75;2215388;80;29520;-65
2022/02/16 07:46:48;;;;;;;11.40;5.25;;;;;;;6.50;69.43;99522.20;2212475;80;31620;-67
2022/02/16 07:49:50;;;;;;;9.75;5.83;;;;;;;6.59;69.29;99519.58;2213631;80;32954;-68
2022/02/16 07:52:58;;;;;;;7.90;4.10;;;;;;;6.67;69.12;99518.78;2210557;79;29352;-68
2022/02/16 07:55:59;;;;;;;9.08;4.85;;;;;;;6.77;68.95;99517.01;2191678;81;28204;-65
2022/02/16 07:59:01;;;;;;;12.03;5.90;;;;;;;6.91;68.70;99505.72;2197317;81;28732;-67
2022/02/16 08:02:03;;;;;;;9.55;5.60;;;;;;;7.08;68.66;99504.45;2197357;81;31025;-68
2022/02/16 08:05:05;;;;;;;9.50;4.35;;;;;;;7.26;68.30;99498.69;2197223;81;33017;-68
2022/02/16 08:08:07;;;;;;;10.20;4.95;;;;;;;7.46;67.92;99483.52;2197218;81;29314;-66
2022/02/16 08:11:09;;;;;;;6.67;3.65;;;;;;;7.65;67.79;99483.92;2197232;81;27667;-68
2022/02/16 08:14:12;;;;;;;7.62;3.70;;;;;;;7.82;66.81;99476.38;2197378;81;28761;-67
2022/02/16 08:17:14;;;;;;;6.95;4.22;;;;;;;7.99;66.93;99468.36;2196533;81;31699;-69
2022/02/16 08:20:16;;;;;;;6.67;4.12;;;;;;;8.14;66.44;99464.50;2197305;81;33806;-70
2022/02/16 08:23:18;;;;;;;8.85;4.28;;;;;;;8.29;66.44;99464.16;2197551;81;28787;-66
2022/02/16 08:26:20;;;;;;;10.82;4.72;;;;;;;8.44;65.73;99451.31;2197588;81;27573;-70
2022/02/16 08:29:24;;;;;;;8.50;3.77;;;;;;;8.56;65.74;99449.82;2183539;81;29469;-70
2022/02/16 08:32:26;;;;;;;25.02;10.88;;;;;;;8.68;65.22;99449.63;2157697;82;31151;-68
2022/02/16 08:35:28;;;;;;;11.30;4.35;;;;;;;8.81;65.03;99445.77;2157639;82;32945;-70
2022/02/16 08:38:30;;;;;;;8.33;4.03;;;;;;;8.90;64.70;99424.36;2160128;81;29476;-69
2022/02/16 08:41:31;;;;;;;15.20;5.47;;;;;;;9.01;64.39;99422.41;2193177;81;27643;-65
2022/02/16 08:44:33;;;;;;;12.93;5.60;;;;;;;9.13;64.08;99415.02;2193215;81;28636;-65
2022/02/16 08:47:35;;;;;;;7.25;4.58;;;;;;;9.30;64.16;99416.72;2193049;81;31161;-69
2022/02/16 08:50:37;;;;;;;8.18;4.80;;;;;;;9.51;64.07;99415.08;2196264;81;33873;-65
2022/02/16 08:53:39;;;;;;;7.15;3.58;;;;;;;9.71;63.40;99408.03;2164093;81;30277;-65
2022/02/16 08:56:43;;;;;;;11.45;4.42;;;;;;;9.93;62.76;99403.20;2157655;81;27679;-66
2022/02/16 08:59:44;;;;;;;5.95;3.50;;;;;;;10.14;63.13;99391.64;2169325;81;28673;-68
2022/02/16 09:02:47;;;;;;;8.10;4.10;;;;;;;10.34;62.64;99389.88;2193317;81;31191;-65
2022/02/16 09:05:49;;;;;;;8.23;3.37;;;;;;;10.55;62.06;99377.95;2196382;81;33389;-68
2022/02/16 09:08:51;;;;;;;12.70;4.65;;;;;;;10.73;61.64;99374.55;2196984;81;30202;-70
2022/02/16 09:11:53;;;;;;;17.15;4.58;;;;;;;10.87;61.34;99365.11;2193108;81;27710;-64
2022/02/16 09:14:55;;;;;;;6.95;3.80;;;;;;;10.99;61.20;99358.58;2193187;81;28699;-69
2022/02/16 09:17:59;;;;;;;7.75;3.70;;;;;;;11.10;60.55;99357.38;2193128;81;31039;-67
2022/02/16 09:21:05;;;;;;;6.03;3.53;;;;;;;11.18;60.38;99351.49;2189911;81;33145;-66
2022/02/16 09:24:05;;;;;;;6.28;3.55;;;;;;;11.25;60.44;99345.61;2156590;82;29352;-66
2022/02/16 09:27:07;;;;;;;7.45;4.10;;;;;;;11.29;59.43;99338.21;2173261;81;27647;-68
2022/02/16 09:30:10;;;;;;;5.08;3.47;;;;;;;11.29;59.23;99335.53;2197442;81;28888;-62
2022/02/16 09:33:12;;;;;;;6.12;3.83;;;;;;;11.22;58.15;99323.03;2197038;81;31008;-63
2022/02/16 09:36:13;;;;;;;10.30;3.80;;;;;;;11.09;58.60;99322.15;2193949;81;33127;-62
2022/02/16 09:39:16;;;;;;;6.20;2.90;;;;;;;10.98;58.65;99314.83;2194474;81;30052;-63
2022/02/16 09:42:18;;;;;;;9.48;3.80;;;;;;;10.95;57.88;99312.34;2197444;81;27590;-62
2022/02/16 09:45:20;;;;;;;7.35;4.75;;;;;;;10.88;58.02;99309.72;2196923;81;28810;-67
2022/02/16 09:48:23;;;;;;;9.10;3.90;;;;;;;10.85;58.01;99302.73;2197298;81;32245;-66
2022/02/16 09:51:25;;;;;;;6.92;3.00;;;;;;;10.87;57.97;99298.13;2195552;81;33131;-70
2022/02/16 09:54:28;;;;;;;7.65;3.47;;;;;;;10.90;57.80;99305.13;2189889;81;30168;-68
2022/02/16 09:57:29;;;;;;;15.03;6.30;;;;;;;10.97;57.37;99300.20;2207570;80;27664;-68
2022/02/16 10:00:31;;;;;;;19.75;8.00;;;;;;;11.01;57.42;99305.25;2218574;80;28694;-70
2022/02/16 10:03:34;;;;;;;11.20;3.87;;;;;;;11.08;57.27;99289.61;2213854;80;31885;-66
2022/02/16 10:06:44;;;;;;;21.23;7.87;;;;;;;11.10;56.59;99276.96;2197531;81;34095;-64
2022/02/16 10:09:46;;;;;;;17.27;6.12;;;;;;;11.08;56.98;99261.46;2194969;81;29446;-69
2022/02/16 10:12:51;;;;;;;7.53;4.37;;;;;;;11.04;56.66;99256.80;2181659;81;28161;-67
2022/02/16 10:15:53;;;;;;;7.92;3.40;;;;;;;11.01;56.38;99243.61;2173158;81;28679;-68
2022/02/16 10:18:57;;;;;;;8.68;3.17;;;;;;;10.94;56.14;99247.19;2132242;82;31051;-67
2022/02/16 10:22:09;;;;;;;6.45;3.20;;;;;;;10.91;56.46;99234.49;2137053;82;33015;-67
2022/02/16 10:25:27;;;;;;;9.60;3.20;;;;;;;10.92;56.58;99229.02;2107663;82;29326;-66
2022/02/16 10:28:28;;;;;;;5.72;3.00;;;;;;;10.92;56.00;99216.12;2151250;82;27681;-69
2022/02/16 10:31:40;;;;;;;5.05;3.10;;;;;;;10.90;56.17;99228.27;2117901;84;28651;-69
2022/02/16 10:34:55;;;;;;;7.30;3.08;;;;;;;10.87;55.85;99215.56;2151965;82;31097;-68
2022/02/16 10:38:00;;;;;;;6.77;3.17;;;;;;;10.84;55.84;99207.73;2172039;81;33037;-68
2022/02/16 10:41:06;;;;;;;13.05;3.10;;;;;;;10.79;55.29;99202.20;2163033;81;29331;-72
2022/02/16 10:44:27;;;;;;;8.55;3.67;;;;;;;10.83;55.47;99203.33;2133105;83;27546;-70
2022/02/16 10:47:29;;;;;;;6.75;3.35;;;;;;;10.81;54.72;99200.77;2138423;82;28686;-67
2022/02/16 10:50:35;;;;;;;7.47;2.70;;;;;;;10.78;54.90;99207.67;2154980;82;32320;-63
2022/02/16 10:53:37;;;;;;;6.45;3.25;;;;;;;10.79;54.81;99210.73;2155411;82;32962;-67
2022/02/16 10:56:40;;;;;;;6.35;3.10;;;;;;;10.81;54.95;99209.27;2155550;81;29483;-65
2022/02/16 10:59:42;;;;;;;4.95;3.55;;;;;;;10.86;54.59;99199.11;2138628;83;27685;-63
2022/02/16 11:02:47;;;;;;;6.17;3.47;;;;;;;10.95;54.91;99195.78;2138600;83;29498;-67
2022/02/16 11:05:49;;;;;;;7.42;4.20;;;;;;;11.00;54.20;99194.98;2177020;81;31025;-65
2022/02/16 11:08:52;;;;;;;8.08;4.53;;;;;;;10.98;54.13;99193.39;2140775;83;33010;-67
2022/02/16 11:11:56;;;;;;;14.65;4.90;;;;;;;10.97;53.99;99169.73;2148828;81;30088;-67
2022/02/16 11:14:58;;;;;;;10.72;4.97;;;;;;;10.92;54.23;99182.62;2210738;79;27596;-66
2022/02/16 11:18:22;;;;;;;8.75;3.85;;;;;;;10.88;54.42;99171.73;2214148;80;28637;-68
2022/02/16 11:21:24;;;;;;;10.55;5.47;;;;;;;10.85;54.30;99170.10;2214501;80;31843;-68
2022/02/16 11:24:41;;;;;;;13.95;5.03;;;;;;;10.84;54.80;99172.90;2197125;81;33863;-68
2022/02/16 11:27:50;;;;;;;8.18;4.25;;;;;;;10.87;54.74;99160.64;2197185;81;30161;-65
2022/02/16 11:30:52;;;;;;;5.90;3.70;;;;;;;10.85;54.74;99159.88;2197071;81;27680;-65
2022/02/16 11:34:15;;;;;;;4.90;3.12;;;;;;;10.81;54.71;99145.85;2193395;81;29488;-65
2022/02/16 11:37:33;;;;;;;7.80;3.17;;;;;;;10.81;54.46;99136.94;2100553;84;31027;-63
2022/02/16 11:40:53;;;;;;;5.40;3.17;;;;;;;10.85;54.91;99133.93;2137767;83;34178;-65
2022/02/16 11:44:02;;;;;;;6.50;3.20;;;;;;;10.91;54.29;99110.73;2112309;84;29497;-67
2022/02/16 11:47:04;;;;;;;5.87;3.10;;;;;;;11.00;54.92;99105.22;2138420;83;27790;-69
2022/02/16 11:50:17;;;;;;;8.53;3.35;;;;;;;11.06;54.50;99095.41;2112116;84;28080;-65
2022/02/16 11:53:24;;;;;;;5.95;3.42;;;;;;;11.20;54.41;99088.20;2137317;83;31897;-65
2022/02/16 11:56:31;;;;;;;10.13;4.05;;;;;;;11.31;54.72;99074.02;2111633;84;33145;-66
2022/02/16 11:59:29;;;;;;;7.67;3.55;;;;;;;11.42;54.52;99071.41;2137560;83;29317;-64
2022/02/16 12:02:32;;;;;;;8.75;4.75;;;;;;;11.47;54.38;99051.83;2112343;84;27639;-68
2022/02/16 12:05:57;;;;;;;6.55;3.00;;;;;;;11.47;53.96;99054.50;2126486;83;29482;-66
2022/02/16 12:09:04;;;;;;;8.40;3.98;;;;;;;11.43;54.11;99050.80;2112668;82;31119;-66
2022/02/16 12:12:12;;;;;;;6.78;3.12;;;;;;;11.44;54.61;99039.09;2127422;81;33782;-69
2022/02/16 12:15:19;;;;;;;6.50;3.62;;;;;;;11.50;53.92;99027.93;2143477;83;29422;-64
2022/02/16 12:18:20;;;;;;;6.25;3.72;;;;;;;11.58;54.37;99016.63;2146377;82;27663;-63
2022/02/16 12:21:29;;;;;;;4.92;3.00;;;;;;;11.68;54.30;99011.81;2147296;82;28769;-64
2022/02/16 12:24:30;;;;;;;5.28;3.62;;;;;;;11.75;53.89;98998.78;2146056;82;31204;-66
2022/02/16 12:27:32;;;;;;;5.12;2.98;;;;;;;11.76;53.99;98984.88;2164267;81;32986;-64
2022/02/16 12:30:40;;;;;;;4.55;2.98;;;;;;;11.76;53.94;98984.88;2159809;82;29316;-66
2022/02/16 12:33:42;;;;;;;11.70;8.23;;;;;;;11.77;53.98;98983.90;2174365;81;27710;-64
2022/02/16 12:36:49;;;;;;;8.35;3.30;;;;;;;11.77;53.99;98974.04;2155176;81;28671;-71
2022/02/16 12:40:00;;;;;;;16.20;6.75;;;;;;;11.77;53.74;98964.65;2175350;80;31075;-65
2022/02/16 12:43:02;;;;;;;12.03;5.87;;;;;;;11.75;53.82;98968.44;2166439;81;33548;-63
2022/02/16 12:46:04;;;;;;;8.93;3.35;;;;;;;11.68;53.47;98954.13;2163010;81;29335;-64
2022/02/16 12:49:07;;;;;;;25.52;9.03;;;;;;;11.68;53.65;98931.80;2181201;80;27953;-66
2022/02/16 12:52:09;;;;;;;22.02;8.85;;;;;;;11.72;53.66;98925.23;2118648;83;28674;-62
2022/02/16 12:55:11;;;;;;;9.45;3.83;;;;;;;11.75;53.49;98914.27;2147918;81;31021;-68
2022/02/16 12:58:14;;;;;;;6.03;3.00;;;;;;;11.75;53.03;98908.06;2105365;84;33232;-63
2022/02/16 13:01:16;;;;;;;20.37;6.67;;;;;;;11.67;53.21;98897.89;2116007;83;29275;-63
2022/02/16 13:04:18;;;;;;;18.70;9.10;;;;;;;11.63;52.88;98897.78;2153486;82;27725;-63
2022/02/16 13:07:22;;;;;;;13.70;5.78;;;;;;;11.60;53.32;98896.67;2133101;83;29544;-69
2022/02/16 13:10:24;;;;;;;9.43;4.03;;;;;;;11.62;53.36;98893.39;2157867;80;31095;-64
2022/02/16 13:13:32;;;;;;;8.05;4.30;;;;;;;11.59;52.96;98888.26;2193756;81;33867;-69
2022/02/16 13:16:34;;;;;;;10.65;3.67;;;;;;;11.55;53.33;98880.94;2173253;81;29332;-65
2022/02/16 13:19:51;;;;;;;7.20;3.00;;;;;;;11.51;52.92;98870.07;2176670;81;27698;-63
2022/02/16 13:22:57;;;;;;;5.95;3.33;;;;;;;11.50;53.44;98850.42;2143429;83;28668;-62
2022/02/16 13:26:11;;;;;;;7.28;2.65;;;;;;;11.52;53.39;98842.28;2149564;82;31832;-64
2022/02/16 13:29:13;;;;;;;7.00;4.08;;;;;;;11.54;53.24;98826.93;2157378;81;33941;-65
2022/02/16 13:32:29;;;;;;;5.20;3.05;;;;;;;11.61;53.29;98816.58;2187304;81;29330;-64
2022/02/16 13:35:31;;;;;;;4.92;3.08;;;;;;;11.63;53.05;98803.91;2180746;81;27750;-65
2022/02/16 13:38:36;;;;;;;6.50;3.52;;;;;;;11.59;52.66;98799.24;2173157;81;28651;-65
2022/02/16 13:41:56;;;;;;;6.97;3.77;;;;;;;11.51;52.87;98794.98;2177788;81;31824;-66
2022/02/16 13:44:59;;;;;;;5.62;3.30;;;;;;;11.43;52.94;98782.17;2160359;81;33017;-64
2022/02/16 13:48:04;;;;;;;6.53;4.28;;;;;;;11.37;53.16;98775.46;2177238;81;29194;-65
2022/02/16 13:51:18;;;;;;;11.15;6.67;;;;;;;11.33;53.11;98781.19;2171925;81;27562;-63
2022/02/16 13:54:25;;;;;;;8.03;4.12;;;;;;;11.25;53.17;98771.06;2177211;81;29833;-63
2022/02/16 13:57:32;;;;;;;8.53;5.00;;;;;;;11.19;53.06;98760.80;2154436;82;31013;-65
2022/02/16 14:00:35;;;;;;;8.45;4.40;;;;;;;11.14;53.39;98752.25;2170802;81;33784;-66
2022/02/16 14:03:39;;;;;;;6.15;3.58;;;;;;;11.08;53.43;98744.20;2187024;81;30288;-63
2022/02/16 14:06:41;;;;;;;8.87;4.03;;;;;;;10.99;53.78;98743.08;2185462;81;27979;-64
2022/02/16 14:09:43;;;;;;;61.18;28.00;;;;;;;10.95;54.00;98742.94;2186872;81;28669;-63
2022/02/16 14:12:45;;;;;;;25.43;15.00;;;;;;;10.91;54.14;98732.95;2185864;81;31305;-63
2022/02/16 14:15:49;;;;;;;42.20;21.60;;;;;;;10.89;54.42;98731.38;2182860;81;34141;-63
2022/02/16 14:22:12;;;;;;;7.05;4.97;;;;;;;10.76;54.61;98736.80;2174392;81;27584;-64